ADDS METAR Data INFO
IDs: Format: Raw Decoded Include TAF

Data at: 2146 UTC 15 Dec 2017

KHGR 152053Z 18006KT 9SM OVC045 M03/M07 A2989 RMK AO2 SLP142 60000 T10281067 56010
KHGR 151953Z 22004KT 10SM SCT026 SCT036 OVC050 M03/M06 A2990 RMK AO2 SNE34 SLP145 P0000 T10281061
KHGR 151914Z 20004KT 3SM -SN SCT023 BKN036 OVC045 M03/M06 A2991 RMK AO2 P0000 T10331061
KHGR 151909Z 18004KT 1 1/4SM -SN SCT025 OVC042 M03/M06 A2991 RMK AO2 P0000 T10331061
KHGR 151906Z 18004KT 3/4SM -SN BKN023 BKN029 OVC044 M03/M06 A2991 RMK AO2 P0000 T10331061
KHGR 151853Z 19006KT 1 1/4SM -SN BKN028 OVC041 M03/M06 A2991 RMK AO2 SNB26 SLP146 P0000 T10281061
KHGR 151850Z 18005KT 1 3/4SM -SN BKN028 OVC041 M03/M07 A2991 RMK AO2 SNB26 P0000
KHGR 151834Z 17007KT 3SM -SN BKN029 OVC050 M03/M07 A2991 RMK AO2 SNB26 P0000 T10281072
KHGR 151753Z 17008KT 10SM SCT055 OVC070 M02/M08 A2992 RMK AO2 SLP152 T10221078 11022 21033 58037
KHGR 151653Z 20009KT 9SM OVC050 M03/M09 A2996 RMK AO2 SLP165 T10281089
KHGR 151553Z 18008KT 10SM OVC044 M02/M11 A3001 RMK AO2 SLP181 T10221106
KHGR 151453Z 17009KT 10SM OVC041 M03/M12 A3004 RMK AO2 SLP190 T10281117 55007
KHGR 151353Z 14005KT 10SM OVC038 M03/M12 A3003 RMK AO2 SLP188 T10281117
KHGR 151253Z 15006KT 10SM OVC043 M03/M12 A3004 RMK AO2 SLP192 T10331117
KHGR 151153Z 15005KT 10SM OVC032 M03/M12 A3006 RMK AO2 SLP198 70001 T10331117 11033 21050 55005
KHGR 151053Z AUTO 15005KT 10SM OVC042 M03/M12 A3005 RMK AO2 SLP196 T10331117 TSNO
KHGR 150953Z AUTO 19005KT 10SM BKN033 OVC041 M03/M12 A3007 RMK AO2 SLP200 T10331117 TSNO
KHGR 150853Z AUTO 21003KT 10SM OVC034 M04/M12 A3007 RMK AO2 SLP202 T10391117 53002 TSNO
KHGR 150753Z AUTO 18003KT 10SM CLR M04/M11 A3007 RMK AO2 SLP201 T10441106 TSNO
KHGR 150653Z AUTO 06004KT 10SM CLR M04/M11 A3006 RMK AO2 SLP197 T10391111 TSNO
KHGR 150553Z AUTO 03003KT 10SM CLR M04/M12 A3007 RMK AO2 SLP201 T10391117 11022 21039 58001 TSNO
KHGR 150453Z AUTO 03004KT 10SM CLR M04/M11 A3008 RMK AO2 SLP204 T10391111 400221039 TSNO
KHGR 150353Z AUTO 08003KT 10SM CLR M03/M12 A3009 RMK AO2 SLP207 T10331122 TSNO
KHGR 150253Z 36005KT 10SM CLR M03/M13 A3007 RMK AO2 SLP201 T10331128 50013
KHGR 150153Z 36007KT 10SM CLR M03/M12 A3008 RMK AO2 SLP203 T10331122
KHGR 150053Z 33007KT 10SM CLR M03/M12 A3007 RMK AO2 SLP200 T10281122
KHGR 142353Z 31007KT 10SM CLR M03/M11 A3003 RMK AO2 SLP188 T10281106 10022 21028 53027
KHGR 142253Z 31007KT 10SM CLR M02/M09 A3000 RMK AO2 SLP176 T10221094
KHGR 142153Z 30008KT 10SM FEW043 M02/M10 A2998 RMK AO2 SLP171 T10171100
KHGR 142053Z 31014KT 10SM FEW043 00/M10 A2995 RMK AO2 SLP161 T00001100 53027
KHGR 141953Z 29015KT 10SM CLR 01/M09 A2992 RMK AO2 SLP148 T00111094
KHGR 141853Z 30013G23KT 10SM SCT045 02/M08 A2989 RMK AO2 SLP138 T00221083
KHGR 141753Z 30018KT 10SM BKN047 01/M09 A2987 RMK AO2 PK WND 29026/1730 SLP133 60001 T00061089 10022 21033 51026
KHGR 141653Z 33014KT 10SM BKN049 01/M07 A2986 RMK AO2 SLP128 T00111067
KHGR 141553Z 34012KT 10SM BKN044 00/M08 A2983 RMK AO2 SNE00 SLP119 P0000 T00001083
KHGR 141511Z 34009G20KT 10SM FEW022 SCT029 BKN042 M01/M06 A2981 RMK AO2 SNE00 PRESRR P0000 T10061061
KHGR 141453Z 34009G24KT 5SM -SN FEW022 BKN029 00/M04 A2979 RMK AO2 PK WND 30033/1422 SNB51 PRESRR SLP106 P0001 60001 T00001044 53067
KHGR 141353Z 31014G20KT 10SM BKN036 01/M03 A2973 RMK AO2 SNB09E25 SLP085 P0000 T00111033
KHGR 141311Z 33011KT 5SM -SN FEW023 BKN035 OVC045 00/M03 A2968 RMK AO2 SNB09 PRESRR P0000 T00001033
KHGR 141253Z 24004KT 8SM BKN043 BKN060 00/M03 A2964 RMK AO2 SLP055 T00001033
KHGR 141153Z 00000KT 10SM FEW028 SCT065 BKN080 M02/M04 A2959 RMK AO2 SLP037 60000 T10221044 11011 21033 53041
KHGR 141053Z AUTO 00000KT 8SM FEW024 BKN039 OVC085 M02/M05 A2953 RMK AO2 SNB24E36 SLP018 P0000 T10171050 TSNO
KHGR 140953Z AUTO 00000KT 6SM BR FEW037 BKN050 OVC060 M03/M05 A2949 RMK AO2 SLP002 T10281050 TSNO